ENTO/TRF METAR and TAF weather

Enter ICAO airport designator
Station Type Date Time Source
ENTO METAR 2019/08/24 20:50 UTC NOAA

ENTO 242050Z 17007KT 7000 OVC004 16/16 Q1025 NOSIG


Station Type Date Time Source
ENTO Decoded METAR 2019/08/24 20:50 UTC NOAA

Station name not available
Aug 24, 2019 - 04:50 PM EDT / 2019.08.24 2050 UTC
Wind: from the S (170 degrees) at 8 MPH (7 KT):0
Visibility: 4 mile(s):0
Sky conditions: overcast
Temperature: 60 F (16 C)
Dew Point: 60 F (16 C)
Relative Humidity: 100%
Pressure (altimeter): 30.27 in. Hg (1025 hPa)
ob: ENTO 242050Z 17007KT 7000 OVC004 16/16 Q1025 NOSIG
cycle: 21

Station Type Date Time Source
ENTO TAF 2019/08/24 19:57 UTC NOAA

TAF
AMD
AMD ENTO 2419/2518 17008KT 9999 SCT003 BKN007 PROB40 2420/2507 0800 FG VV002
BECMG 2508/2510 FEW012

Example: see airport list